sensor_id;sensor_type;location;lat;lon;timestamp;temperature;humidity
16781;DHT22;8507;50.056;8.248;2022-12-10T00:01:06;2.40;99.90
16781;DHT22;8507;50.056;8.248;2022-12-10T00:03:32;2.30;99.90
16781;DHT22;8507;50.056;8.248;2022-12-10T00:06:00;2.50;99.90
16781;DHT22;8507;50.056;8.248;2022-12-10T00:08:26;2.30;99.90
16781;DHT22;8507;50.056;8.248;2022-12-10T00:10:52;2.20;99.90
16781;DHT22;8507;50.056;8.248;2022-12-10T00:13:17;2.10;99.90
16781;DHT22;8507;50.056;8.248;2022-12-10T00:15:43;1.90;99.90
16781;DHT22;8507;50.056;8.248;2022-12-10T00:18:08;1.80;99.90
16781;DHT22;8507;50.056;8.248;2022-12-10T00:20:36;1.70;99.90
16781;DHT22;8507;50.056;8.248;2022-12-10T00:23:02;1.70;99.90
16781;DHT22;8507;50.056;8.248;2022-12-10T00:25:28;1.80;99.90
16781;DHT22;8507;50.056;8.248;2022-12-10T00:27:53;1.90;99.90
16781;DHT22;8507;50.056;8.248;2022-12-10T00:30:19;1.80;99.90
16781;DHT22;8507;50.056;8.248;2022-12-10T00:32:44;1.90;99.90
16781;DHT22;8507;50.056;8.248;2022-12-10T00:35:10;1.80;99.90
16781;DHT22;8507;50.056;8.248;2022-12-10T00:37:35;1.70;99.90
16781;DHT22;8507;50.056;8.248;2022-12-10T00:40:01;1.50;99.90
16781;DHT22;8507;50.056;8.248;2022-12-10T00:42:27;1.40;99.90
16781;DHT22;8507;50.056;8.248;2022-12-10T00:44:52;1.50;99.90
16781;DHT22;8507;50.056;8.248;2022-12-10T00:47:18;1.40;99.90
16781;DHT22;8507;50.056;8.248;2022-12-10T00:49:43;1.40;99.90
16781;DHT22;8507;50.056;8.248;2022-12-10T00:52:09;1.50;99.90
16781;DHT22;8507;50.056;8.248;2022-12-10T00:54:34;1.50;99.90
16781;DHT22;8507;50.056;8.248;2022-12-10T00:57:00;1.50;99.90
16781;DHT22;8507;50.056;8.248;2022-12-10T00:59:25;1.40;99.90
16781;DHT22;8507;50.056;8.248;2022-12-10T01:01:51;1.30;99.90
16781;DHT22;8507;50.056;8.248;2022-12-10T01:04:17;1.20;99.90
16781;DHT22;8507;50.056;8.248;2022-12-10T01:06:48;1.20;99.90
16781;DHT22;8507;50.056;8.248;2022-12-10T01:09:17;1.30;99.90
16781;DHT22;8507;50.056;8.248;2022-12-10T01:11:44;1.20;99.90
16781;DHT22;8507;50.056;8.248;2022-12-10T01:14:18;1.30;99.90
16781;DHT22;8507;50.056;8.248;2022-12-10T01:16:44;1.40;99.90
16781;DHT22;8507;50.056;8.248;2022-12-10T01:19:10;1.40;99.90
16781;DHT22;8507;50.056;8.248;2022-12-10T01:21:36;1.30;99.90
16781;DHT22;8507;50.056;8.248;2022-12-10T01:24:02;1.20;99.90
16781;DHT22;8507;50.056;8.248;2022-12-10T01:26:31;1.10;99.90
16781;DHT22;8507;50.056;8.248;2022-12-10T01:28:57;1.10;99.90
16781;DHT22;8507;50.056;8.248;2022-12-10T01:31:29;1.10;99.90
16781;DHT22;8507;50.056;8.248;2022-12-10T01:33:57;1.10;99.90
16781;DHT22;8507;50.056;8.248;2022-12-10T01:36:26;1.10;99.90
16781;DHT22;8507;50.056;8.248;2022-12-10T01:38:52;1.10;99.90
16781;DHT22;8507;50.056;8.248;2022-12-10T01:41:23;1.10;99.90
16781;DHT22;8507;50.056;8.248;2022-12-10T01:44:03;1.10;99.90
16781;DHT22;8507;50.056;8.248;2022-12-10T01:46:38;1.10;99.90
16781;DHT22;8507;50.056;8.248;2022-12-10T01:49:07;1.10;99.90
16781;DHT22;8507;50.056;8.248;2022-12-10T01:51:35;1.10;99.90
16781;DHT22;8507;50.056;8.248;2022-12-10T01:54:03;1.20;99.90
16781;DHT22;8507;50.056;8.248;2022-12-10T01:56:31;1.20;99.90
16781;DHT22;8507;50.056;8.248;2022-12-10T01:59:00;1.10;99.90
16781;DHT22;8507;50.056;8.248;2022-12-10T02:07:14;1.10;99.90
16781;DHT22;8507;50.056;8.248;2022-12-10T02:12:24;1.00;99.90
16781;DHT22;8507;50.056;8.248;2022-12-10T02:17:32;0.90;99.90
16781;DHT22;8507;50.056;8.248;2022-12-10T02:20:15;0.90;99.90
16781;DHT22;8507;50.056;8.248;2022-12-10T02:22:48;0.80;99.90
16781;DHT22;8507;50.056;8.248;2022-12-10T02:25:17;0.80;99.90
16781;DHT22;8507;50.056;8.248;2022-12-10T02:30:24;0.70;99.90
16781;DHT22;8507;50.056;8.248;2022-12-10T02:32:50;0.70;99.90
16781;DHT22;8507;50.056;8.248;2022-12-10T02:35:24;0.70;99.90
16781;DHT22;8507;50.056;8.248;2022-12-10T02:38:01;0.60;99.90
16781;DHT22;8507;50.056;8.248;2022-12-10T02:40:31;0.50;99.90
16781;DHT22;8507;50.056;8.248;2022-12-10T02:42:58;0.50;99.90
16781;DHT22;8507;50.056;8.248;2022-12-10T02:45:27;0.40;99.90
16781;DHT22;8507;50.056;8.248;2022-12-10T02:47:56;0.20;99.90
16781;DHT22;8507;50.056;8.248;2022-12-10T02:50:23;0.10;99.90
16781;DHT22;8507;50.056;8.248;2022-12-10T02:52:49;0.10;99.90
16781;DHT22;8507;50.056;8.248;2022-12-10T02:55:15;0.00;99.90
16781;DHT22;8507;50.056;8.248;2022-12-10T03:00:56;0.00;99.90
16781;DHT22;8507;50.056;8.248;2022-12-10T03:03:32;0.00;99.90
16781;DHT22;8507;50.056;8.248;2022-12-10T03:06:12;-0.10;99.90
16781;DHT22;8507;50.056;8.248;2022-12-10T03:08:50;-0.10;99.90
16781;DHT22;8507;50.056;8.248;2022-12-10T03:11:18;-0.20;99.90
16781;DHT22;8507;50.056;8.248;2022-12-10T03:13:54;-0.20;99.90
16781;DHT22;8507;50.056;8.248;2022-12-10T03:16:23;-0.20;99.90
16781;DHT22;8507;50.056;8.248;2022-12-10T03:18:53;-0.30;99.90
16781;DHT22;8507;50.056;8.248;2022-12-10T03:21:20;-0.30;99.90
16781;DHT22;8507;50.056;8.248;2022-12-10T03:23:48;-0.30;99.90
16781;DHT22;8507;50.056;8.248;2022-12-10T03:26:15;-0.30;99.90
16781;DHT22;8507;50.056;8.248;2022-12-10T03:28:45;-0.30;99.90
16781;DHT22;8507;50.056;8.248;2022-12-10T03:31:14;-0.30;99.90
16781;DHT22;8507;50.056;8.248;2022-12-10T03:33:41;-0.40;99.90
16781;DHT22;8507;50.056;8.248;2022-12-10T03:36:07;-0.40;99.90
16781;DHT22;8507;50.056;8.248;2022-12-10T03:38:34;-0.40;99.90
16781;DHT22;8507;50.056;8.248;2022-12-10T03:41:00;-0.40;99.90
16781;DHT22;8507;50.056;8.248;2022-12-10T03:43:26;-0.40;99.90
16781;DHT22;8507;50.056;8.248;2022-12-10T03:45:51;-0.40;99.90
16781;DHT22;8507;50.056;8.248;2022-12-10T03:48:17;-0.40;99.90
16781;DHT22;8507;50.056;8.248;2022-12-10T03:50:42;-0.50;99.90
16781;DHT22;8507;50.056;8.248;2022-12-10T03:53:08;-0.50;99.90
16781;DHT22;8507;50.056;8.248;2022-12-10T03:55:34;-0.50;99.90
16781;DHT22;8507;50.056;8.248;2022-12-10T03:57:59;-0.40;99.90
16781;DHT22;8507;50.056;8.248;2022-12-10T04:00:25;-0.50;99.90
16781;DHT22;8507;50.056;8.248;2022-12-10T04:02:50;-0.50;99.90
16781;DHT22;8507;50.056;8.248;2022-12-10T04:05:16;-0.50;99.90
16781;DHT22;8507;50.056;8.248;2022-12-10T04:07:42;-0.50;99.90
16781;DHT22;8507;50.056;8.248;2022-12-10T04:10:07;-0.60;99.90
16781;DHT22;8507;50.056;8.248;2022-12-10T04:12:33;-0.50;99.90
16781;DHT22;8507;50.056;8.248;2022-12-10T04:14:59;-0.60;99.90
16781;DHT22;8507;50.056;8.248;2022-12-10T04:17:43;-0.60;99.90
16781;DHT22;8507;50.056;8.248;2022-12-10T04:20:09;-0.60;99.90
16781;DHT22;8507;50.056;8.248;2022-12-10T04:22:55;-0.60;99.90
16781;DHT22;8507;50.056;8.248;2022-12-10T04:25:38;-0.50;99.90
16781;DHT22;8507;50.056;8.248;2022-12-10T04:28:23;-0.50;99.90
16781;DHT22;8507;50.056;8.248;2022-12-10T04:30:48;-0.50;99.90
16781;DHT22;8507;50.056;8.248;2022-12-10T04:33:14;-0.50;99.90
16781;DHT22;8507;50.056;8.248;2022-12-10T04:35:39;-0.50;99.90
16781;DHT22;8507;50.056;8.248;2022-12-10T04:38:05;-0.60;99.90
16781;DHT22;8507;50.056;8.248;2022-12-10T04:40:30;-0.70;99.90
16781;DHT22;8507;50.056;8.248;2022-12-10T04:42:56;-0.70;99.90
16781;DHT22;8507;50.056;8.248;2022-12-10T04:45:21;-0.70;99.90
16781;DHT22;8507;50.056;8.248;2022-12-10T04:47:47;-0.70;99.90
16781;DHT22;8507;50.056;8.248;2022-12-10T04:50:12;-0.70;99.90
16781;DHT22;8507;50.056;8.248;2022-12-10T04:52:38;-0.70;99.90
16781;DHT22;8507;50.056;8.248;2022-12-10T04:55:04;-0.70;99.90
16781;DHT22;8507;50.056;8.248;2022-12-10T04:57:29;-0.70;99.90
16781;DHT22;8507;50.056;8.248;2022-12-10T04:59:55;-0.70;99.90
16781;DHT22;8507;50.056;8.248;2022-12-10T05:02:21;-0.70;99.90
16781;DHT22;8507;50.056;8.248;2022-12-10T05:04:48;-0.70;99.90
16781;DHT22;8507;50.056;8.248;2022-12-10T05:07:14;-0.70;99.90
16781;DHT22;8507;50.056;8.248;2022-12-10T05:09:39;-0.80;99.90
16781;DHT22;8507;50.056;8.248;2022-12-10T05:12:05;-0.80;99.90
16781;DHT22;8507;50.056;8.248;2022-12-10T05:14:31;-0.80;99.90
16781;DHT22;8507;50.056;8.248;2022-12-10T05:16:56;-0.80;99.90
16781;DHT22;8507;50.056;8.248;2022-12-10T05:19:22;-0.80;99.90
16781;DHT22;8507;50.056;8.248;2022-12-10T05:21:49;-0.90;99.90
16781;DHT22;8507;50.056;8.248;2022-12-10T05:24:33;-0.90;99.90
16781;DHT22;8507;50.056;8.248;2022-12-10T05:26:59;-0.90;99.90
16781;DHT22;8507;50.056;8.248;2022-12-10T05:29:25;-0.90;99.90
16781;DHT22;8507;50.056;8.248;2022-12-10T05:31:50;-0.80;99.90
16781;DHT22;8507;50.056;8.248;2022-12-10T05:34:16;-0.80;99.90
16781;DHT22;8507;50.056;8.248;2022-12-10T05:36:41;-0.80;99.90
16781;DHT22;8507;50.056;8.248;2022-12-10T05:39:07;-0.80;99.90
16781;DHT22;8507;50.056;8.248;2022-12-10T05:41:38;-0.80;99.90
16781;DHT22;8507;50.056;8.248;2022-12-10T05:44:04;-0.80;99.90
16781;DHT22;8507;50.056;8.248;2022-12-10T05:46:31;-0.80;99.90
16781;DHT22;8507;50.056;8.248;2022-12-10T05:48:57;-0.90;99.90
16781;DHT22;8507;50.056;8.248;2022-12-10T05:51:27;-0.80;99.90
16781;DHT22;8507;50.056;8.248;2022-12-10T05:53:54;-0.70;99.90
16781;DHT22;8507;50.056;8.248;2022-12-10T05:56:21;-0.70;99.90
16781;DHT22;8507;50.056;8.248;2022-12-10T05:58:49;-0.70;99.90
16781;DHT22;8507;50.056;8.248;2022-12-10T06:01:17;-0.70;99.90
16781;DHT22;8507;50.056;8.248;2022-12-10T06:03:43;-0.70;99.90
16781;DHT22;8507;50.056;8.248;2022-12-10T06:06:10;-0.80;99.90
16781;DHT22;8507;50.056;8.248;2022-12-10T06:08:37;-0.80;99.90
16781;DHT22;8507;50.056;8.248;2022-12-10T06:11:05;-0.80;99.90
16781;DHT22;8507;50.056;8.248;2022-12-10T06:13:30;-0.80;99.90
16781;DHT22;8507;50.056;8.248;2022-12-10T06:15:56;-0.80;99.90
16781;DHT22;8507;50.056;8.248;2022-12-10T06:18:22;-0.80;99.90
16781;DHT22;8507;50.056;8.248;2022-12-10T06:20:47;-0.80;99.90
16781;DHT22;8507;50.056;8.248;2022-12-10T06:23:13;-0.70;99.90
16781;DHT22;8507;50.056;8.248;2022-12-10T06:25:39;-0.60;99.90
16781;DHT22;8507;50.056;8.248;2022-12-10T06:28:05;-0.50;99.90
16781;DHT22;8507;50.056;8.248;2022-12-10T06:30:31;-0.40;99.90
16781;DHT22;8507;50.056;8.248;2022-12-10T06:32:56;-0.40;99.90
16781;DHT22;8507;50.056;8.248;2022-12-10T06:35:22;-0.30;99.90
16781;DHT22;8507;50.056;8.248;2022-12-10T06:37:48;-0.30;99.90
16781;DHT22;8507;50.056;8.248;2022-12-10T06:40:14;-0.20;99.90
16781;DHT22;8507;50.056;8.248;2022-12-10T06:42:40;-0.10;99.90
16781;DHT22;8507;50.056;8.248;2022-12-10T06:45:05;0.00;99.90
16781;DHT22;8507;50.056;8.248;2022-12-10T06:47:31;0.10;99.90
16781;DHT22;8507;50.056;8.248;2022-12-10T06:49:57;0.20;99.90
16781;DHT22;8507;50.056;8.248;2022-12-10T06:52:22;0.20;99.90
16781;DHT22;8507;50.056;8.248;2022-12-10T06:54:48;0.30;99.90
16781;DHT22;8507;50.056;8.248;2022-12-10T06:57:13;0.30;99.90
16781;DHT22;8507;50.056;8.248;2022-12-10T06:59:39;0.40;99.90
16781;DHT22;8507;50.056;8.248;2022-12-10T07:02:05;0.40;99.90
16781;DHT22;8507;50.056;8.248;2022-12-10T07:04:30;0.50;99.90
16781;DHT22;8507;50.056;8.248;2022-12-10T07:06:56;0.50;99.90
16781;DHT22;8507;50.056;8.248;2022-12-10T07:09:21;0.60;99.90
16781;DHT22;8507;50.056;8.248;2022-12-10T07:11:47;0.60;99.90
16781;DHT22;8507;50.056;8.248;2022-12-10T07:14:16;0.70;99.90
16781;DHT22;8507;50.056;8.248;2022-12-10T07:16:42;0.80;99.90
16781;DHT22;8507;50.056;8.248;2022-12-10T07:19:10;0.80;99.90
16781;DHT22;8507;50.056;8.248;2022-12-10T07:21:40;0.90;99.90
16781;DHT22;8507;50.056;8.248;2022-12-10T07:24:16;1.00;99.90
16781;DHT22;8507;50.056;8.248;2022-12-10T07:26:44;1.00;99.90
16781;DHT22;8507;50.056;8.248;2022-12-10T07:29:13;1.00;99.90
16781;DHT22;8507;50.056;8.248;2022-12-10T07:31:40;1.00;99.90
16781;DHT22;8507;50.056;8.248;2022-12-10T07:34:05;1.20;99.90
16781;DHT22;8507;50.056;8.248;2022-12-10T07:36:31;1.30;99.90
16781;DHT22;8507;50.056;8.248;2022-12-10T07:38:57;1.40;99.90
16781;DHT22;8507;50.056;8.248;2022-12-10T07:41:23;1.40;99.90
16781;DHT22;8507;50.056;8.248;2022-12-10T07:43:50;1.50;99.90
16781;DHT22;8507;50.056;8.248;2022-12-10T07:46:21;1.60;99.90
16781;DHT22;8507;50.056;8.248;2022-12-10T07:48:48;1.70;99.90
16781;DHT22;8507;50.056;8.248;2022-12-10T07:51:15;1.70;99.90
16781;DHT22;8507;50.056;8.248;2022-12-10T07:53:41;1.70;99.90
16781;DHT22;8507;50.056;8.248;2022-12-10T07:56:07;1.80;99.90
16781;DHT22;8507;50.056;8.248;2022-12-10T07:58:33;1.90;99.90
16781;DHT22;8507;50.056;8.248;2022-12-10T08:00:59;2.00;99.90
16781;DHT22;8507;50.056;8.248;2022-12-10T08:03:24;2.10;99.90
16781;DHT22;8507;50.056;8.248;2022-12-10T08:06:07;2.10;99.90
16781;DHT22;8507;50.056;8.248;2022-12-10T08:08:34;2.10;99.90
16781;DHT22;8507;50.056;8.248;2022-12-10T08:11:02;2.20;99.90
16781;DHT22;8507;50.056;8.248;2022-12-10T08:13:28;2.30;99.90
16781;DHT22;8507;50.056;8.248;2022-12-10T08:15:54;2.30;99.90
16781;DHT22;8507;50.056;8.248;2022-12-10T08:18:20;2.40;99.90
16781;DHT22;8507;50.056;8.248;2022-12-10T08:20:46;2.50;99.90
16781;DHT22;8507;50.056;8.248;2022-12-10T08:23:12;2.50;99.90
16781;DHT22;8507;50.056;8.248;2022-12-10T08:25:37;2.40;99.90
16781;DHT22;8507;50.056;8.248;2022-12-10T08:28:03;2.50;99.90
16781;DHT22;8507;50.056;8.248;2022-12-10T08:30:29;2.40;99.90
16781;DHT22;8507;50.056;8.248;2022-12-10T08:32:55;2.40;99.90
16781;DHT22;8507;50.056;8.248;2022-12-10T08:35:20;2.50;99.90
16781;DHT22;8507;50.056;8.248;2022-12-10T08:37:46;2.40;99.90
16781;DHT22;8507;50.056;8.248;2022-12-10T08:40:12;2.40;99.90
16781;DHT22;8507;50.056;8.248;2022-12-10T08:42:37;2.20;99.90
16781;DHT22;8507;50.056;8.248;2022-12-10T08:45:04;2.30;99.90
16781;DHT22;8507;50.056;8.248;2022-12-10T08:47:29;2.50;99.90
16781;DHT22;8507;50.056;8.248;2022-12-10T08:49:55;2.50;99.90
16781;DHT22;8507;50.056;8.248;2022-12-10T08:52:20;2.40;99.90
16781;DHT22;8507;50.056;8.248;2022-12-10T08:54:46;2.30;99.90
16781;DHT22;8507;50.056;8.248;2022-12-10T08:57:11;2.30;99.90
16781;DHT22;8507;50.056;8.248;2022-12-10T08:59:37;2.30;99.90
16781;DHT22;8507;50.056;8.248;2022-12-10T09:02:02;2.20;99.90
16781;DHT22;8507;50.056;8.248;2022-12-10T09:04:28;2.20;99.90
16781;DHT22;8507;50.056;8.248;2022-12-10T09:06:53;1.90;99.90
16781;DHT22;8507;50.056;8.248;2022-12-10T09:09:19;1.90;99.90
16781;DHT22;8507;50.056;8.248;2022-12-10T09:11:45;1.90;99.90
16781;DHT22;8507;50.056;8.248;2022-12-10T09:14:11;1.90;99.90
16781;DHT22;8507;50.056;8.248;2022-12-10T09:16:37;1.70;99.90
16781;DHT22;8507;50.056;8.248;2022-12-10T09:19:05;1.60;99.90
16781;DHT22;8507;50.056;8.248;2022-12-10T09:21:31;1.60;99.90
16781;DHT22;8507;50.056;8.248;2022-12-10T09:23:57;1.60;99.90
16781;DHT22;8507;50.056;8.248;2022-12-10T09:26:23;1.50;99.90
16781;DHT22;8507;50.056;8.248;2022-12-10T09:28:48;1.30;99.90
16781;DHT22;8507;50.056;8.248;2022-12-10T09:31:17;1.10;99.90
16781;DHT22;8507;50.056;8.248;2022-12-10T09:33:43;1.00;99.90
16781;DHT22;8507;50.056;8.248;2022-12-10T09:36:11;1.00;99.90
16781;DHT22;8507;50.056;8.248;2022-12-10T09:38:41;1.00;99.90
16781;DHT22;8507;50.056;8.248;2022-12-10T09:43:52;1.00;99.90
16781;DHT22;8507;50.056;8.248;2022-12-10T09:49:21;1.60;99.90
16781;DHT22;8507;50.056;8.248;2022-12-10T09:51:50;2.00;99.90
16781;DHT22;8507;50.056;8.248;2022-12-10T09:56:55;2.30;99.90
16781;DHT22;8507;50.056;8.248;2022-12-10T09:59:32;2.60;99.90
16781;DHT22;8507;50.056;8.248;2022-12-10T10:02:23;3.00;99.90
16781;DHT22;8507;50.056;8.248;2022-12-10T10:04:51;2.90;99.90
16781;DHT22;8507;50.056;8.248;2022-12-10T10:07:28;2.70;99.90
16781;DHT22;8507;50.056;8.248;2022-12-10T10:10:07;2.30;99.90
16781;DHT22;8507;50.056;8.248;2022-12-10T10:12:39;2.30;99.90
16781;DHT22;8507;50.056;8.248;2022-12-10T10:15:18;2.10;99.90
16781;DHT22;8507;50.056;8.248;2022-12-10T10:17:47;2.10;99.90
16781;DHT22;8507;50.056;8.248;2022-12-10T10:20:15;2.30;99.90
16781;DHT22;8507;50.056;8.248;2022-12-10T10:22:41;2.10;99.90
16781;DHT22;8507;50.056;8.248;2022-12-10T10:25:16;2.00;99.90
16781;DHT22;8507;50.056;8.248;2022-12-10T10:27:42;1.90;99.90
16781;DHT22;8507;50.056;8.248;2022-12-10T10:30:15;1.90;99.90
16781;DHT22;8507;50.056;8.248;2022-12-10T10:35:29;2.30;99.90
16781;DHT22;8507;50.056;8.248;2022-12-10T10:38:08;2.70;99.90
16781;DHT22;8507;50.056;8.248;2022-12-10T10:40:43;3.10;99.90
16781;DHT22;8507;50.056;8.248;2022-12-10T10:43:26;3.10;99.90
16781;DHT22;8507;50.056;8.248;2022-12-10T10:45:58;3.40;99.90
16781;DHT22;8507;50.056;8.248;2022-12-10T10:48:26;3.30;99.90
16781;DHT22;8507;50.056;8.248;2022-12-10T10:53:43;3.70;99.90
16781;DHT22;8507;50.056;8.248;2022-12-10T11:01:25;3.70;99.90
16781;DHT22;8507;50.056;8.248;2022-12-10T11:03:57;3.20;99.90
16781;DHT22;8507;50.056;8.248;2022-12-10T11:06:24;3.00;99.90
16781;DHT22;8507;50.056;8.248;2022-12-10T11:08:51;2.90;99.90
16781;DHT22;8507;50.056;8.248;2022-12-10T11:14:31;2.90;99.90
16781;DHT22;8507;50.056;8.248;2022-12-10T11:17:22;3.20;99.90
16781;DHT22;8507;50.056;8.248;2022-12-10T11:20:12;3.40;99.90
16781;DHT22;8507;50.056;8.248;2022-12-10T11:22:49;3.70;99.90
16781;DHT22;8507;50.056;8.248;2022-12-10T11:25:15;3.60;99.90
16781;DHT22;8507;50.056;8.248;2022-12-10T11:28:10;3.90;99.90
16781;DHT22;8507;50.056;8.248;2022-12-10T11:30:45;3.30;99.90
16781;DHT22;8507;50.056;8.248;2022-12-10T11:33:42;3.60;99.90
16781;DHT22;8507;50.056;8.248;2022-12-10T11:39:06;4.00;99.90
16781;DHT22;8507;50.056;8.248;2022-12-10T11:44:29;3.70;99.90
16781;DHT22;8507;50.056;8.248;2022-12-10T11:55:13;4.30;99.90
16781;DHT22;8507;50.056;8.248;2022-12-10T12:00:56;3.90;99.90
16781;DHT22;8507;50.056;8.248;2022-12-10T12:03:36;4.20;99.90
16781;DHT22;8507;50.056;8.248;2022-12-10T12:12:50;4.40;99.90
16781;DHT22;8507;50.056;8.248;2022-12-10T12:15:00;4.80;99.90
16781;DHT22;8507;50.056;8.248;2022-12-10T12:17:41;4.70;99.90
16781;DHT22;8507;50.056;8.248;2022-12-10T12:20:17;5.00;99.90
16781;DHT22;8507;50.056;8.248;2022-12-10T12:22:49;4.20;99.90
16781;DHT22;8507;50.056;8.248;2022-12-10T12:25:28;4.80;99.90
16781;DHT22;8507;50.056;8.248;2022-12-10T12:28:08;4.70;99.90
16781;DHT22;8507;50.056;8.248;2022-12-10T12:30:37;4.80;99.90
16781;DHT22;8507;50.056;8.248;2022-12-10T12:33:11;5.00;99.90
16781;DHT22;8507;50.056;8.248;2022-12-10T12:35:51;5.50;99.90
16781;DHT22;8507;50.056;8.248;2022-12-10T12:38:39;5.20;99.90
16781;DHT22;8507;50.056;8.248;2022-12-10T12:41:17;5.40;99.90
16781;DHT22;8507;50.056;8.248;2022-12-10T12:43:58;4.60;99.90
16781;DHT22;8507;50.056;8.248;2022-12-10T12:49:14;4.00;99.90
16781;DHT22;8507;50.056;8.248;2022-12-10T12:51:48;4.20;99.90
16781;DHT22;8507;50.056;8.248;2022-12-10T12:54:15;4.10;99.90
16781;DHT22;8507;50.056;8.248;2022-12-10T12:59:52;4.50;99.90
16781;DHT22;8507;50.056;8.248;2022-12-10T13:02:39;4.30;99.90
16781;DHT22;8507;50.056;8.248;2022-12-10T13:05:16;4.40;99.90
16781;DHT22;8507;50.056;8.248;2022-12-10T13:07:43;4.50;99.90
16781;DHT22;8507;50.056;8.248;2022-12-10T13:10:22;4.50;99.90
16781;DHT22;8507;50.056;8.248;2022-12-10T13:13:06;4.40;99.90
16781;DHT22;8507;50.056;8.248;2022-12-10T13:15:41;4.30;99.90
16781;DHT22;8507;50.056;8.248;2022-12-10T13:20:46;4.20;99.90
16781;DHT22;8507;50.056;8.248;2022-12-10T13:28:27;3.50;99.90
16781;DHT22;8507;50.056;8.248;2022-12-10T13:41:33;3.50;99.90
16781;DHT22;8507;50.056;8.248;2022-12-10T13:44:49;3.60;99.90
16781;DHT22;8507;50.056;8.248;2022-12-10T14:01:01;2.60;99.90
16781;DHT22;8507;50.056;8.248;2022-12-10T14:03:37;2.40;99.90
16781;DHT22;8507;50.056;8.248;2022-12-10T14:06:23;2.40;99.90
16781;DHT22;8507;50.056;8.248;2022-12-10T14:09:18;2.20;99.90
16781;DHT22;8507;50.056;8.248;2022-12-10T14:12:03;2.00;99.90
16781;DHT22;8507;50.056;8.248;2022-12-10T14:14:56;2.10;99.90
16781;DHT22;8507;50.056;8.248;2022-12-10T14:17:24;1.80;99.90
16781;DHT22;8507;50.056;8.248;2022-12-10T14:19:55;1.80;99.90
16781;DHT22;8507;50.056;8.248;2022-12-10T14:22:39;2.00;99.90
16781;DHT22;8507;50.056;8.248;2022-12-10T14:25:14;2.10;99.90
16781;DHT22;8507;50.056;8.248;2022-12-10T14:27:40;2.10;99.90
16781;DHT22;8507;50.056;8.248;2022-12-10T14:30:15;2.10;99.90
16781;DHT22;8507;50.056;8.248;2022-12-10T14:32:41;2.00;99.90
16781;DHT22;8507;50.056;8.248;2022-12-10T14:35:13;1.90;99.90
16781;DHT22;8507;50.056;8.248;2022-12-10T14:37:42;1.90;99.90
16781;DHT22;8507;50.056;8.248;2022-12-10T14:40:12;1.80;99.90
16781;DHT22;8507;50.056;8.248;2022-12-10T14:42:42;1.70;99.90
16781;DHT22;8507;50.056;8.248;2022-12-10T14:45:13;1.70;99.90
16781;DHT22;8507;50.056;8.248;2022-12-10T14:47:40;1.90;99.90
16781;DHT22;8507;50.056;8.248;2022-12-10T14:50:11;1.80;99.90
16781;DHT22;8507;50.056;8.248;2022-12-10T14:52:43;1.90;99.90
16781;DHT22;8507;50.056;8.248;2022-12-10T14:55:17;2.00;99.90
16781;DHT22;8507;50.056;8.248;2022-12-10T14:57:48;2.00;99.90
16781;DHT22;8507;50.056;8.248;2022-12-10T15:00:19;2.10;99.90
16781;DHT22;8507;50.056;8.248;2022-12-10T15:02:52;1.80;99.90
16781;DHT22;8507;50.056;8.248;2022-12-10T15:05:21;1.60;99.90
16781;DHT22;8507;50.056;8.248;2022-12-10T15:08:14;1.40;99.90
16781;DHT22;8507;50.056;8.248;2022-12-10T15:10:44;1.20;99.90
16781;DHT22;8507;50.056;8.248;2022-12-10T15:13:21;1.20;99.90
16781;DHT22;8507;50.056;8.248;2022-12-10T15:15:51;1.10;99.90
16781;DHT22;8507;50.056;8.248;2022-12-10T15:18:20;1.00;99.90
16781;DHT22;8507;50.056;8.248;2022-12-10T15:20:54;1.00;99.90
16781;DHT22;8507;50.056;8.248;2022-12-10T15:28:41;0.80;99.90
16781;DHT22;8507;50.056;8.248;2022-12-10T15:33:54;0.90;99.90
16781;DHT22;8507;50.056;8.248;2022-12-10T15:36:42;0.70;99.90
16781;DHT22;8507;50.056;8.248;2022-12-10T15:41:48;0.70;99.90
16781;DHT22;8507;50.056;8.248;2022-12-10T15:44:39;0.70;99.90
16781;DHT22;8507;50.056;8.248;2022-12-10T15:49:45;0.60;99.90
16781;DHT22;8507;50.056;8.248;2022-12-10T15:52:13;0.60;99.90
16781;DHT22;8507;50.056;8.248;2022-12-10T15:54:41;0.50;99.90
16781;DHT22;8507;50.056;8.248;2022-12-10T15:57:16;0.40;99.90
16781;DHT22;8507;50.056;8.248;2022-12-10T15:59:46;0.40;99.90
16781;DHT22;8507;50.056;8.248;2022-12-10T16:04:41;0.40;99.90
16781;DHT22;8507;50.056;8.248;2022-12-10T16:07:08;0.40;99.90
16781;DHT22;8507;50.056;8.248;2022-12-10T16:09:33;0.50;99.90
16781;DHT22;8507;50.056;8.248;2022-12-10T16:11:59;0.40;99.90
16781;DHT22;8507;50.056;8.248;2022-12-10T16:14:24;0.40;99.90
16781;DHT22;8507;50.056;8.248;2022-12-10T16:16:50;0.30;99.90
16781;DHT22;8507;50.056;8.248;2022-12-10T16:19:15;0.30;99.90
16781;DHT22;8507;50.056;8.248;2022-12-10T16:21:41;0.30;99.90
16781;DHT22;8507;50.056;8.248;2022-12-10T16:24:06;0.20;99.90
16781;DHT22;8507;50.056;8.248;2022-12-10T16:26:32;0.20;99.90
16781;DHT22;8507;50.056;8.248;2022-12-10T16:28:57;0.20;99.90
16781;DHT22;8507;50.056;8.248;2022-12-10T16:31:23;0.10;99.90
16781;DHT22;8507;50.056;8.248;2022-12-10T16:33:49;0.10;99.90
16781;DHT22;8507;50.056;8.248;2022-12-10T16:36:17;0.10;99.90
16781;DHT22;8507;50.056;8.248;2022-12-10T16:38:42;0.00;99.90
16781;DHT22;8507;50.056;8.248;2022-12-10T16:41:37;0.10;99.90
16781;DHT22;8507;50.056;8.248;2022-12-10T16:44:02;0.00;99.90
16781;DHT22;8507;50.056;8.248;2022-12-10T16:46:28;-0.10;99.90
16781;DHT22;8507;50.056;8.248;2022-12-10T16:48:54;-0.10;99.90
16781;DHT22;8507;50.056;8.248;2022-12-10T16:51:29;-0.10;99.90
16781;DHT22;8507;50.056;8.248;2022-12-10T16:53:56;-0.20;99.90
16781;DHT22;8507;50.056;8.248;2022-12-10T16:56:21;-0.20;99.90
16781;DHT22;8507;50.056;8.248;2022-12-10T16:58:47;-0.20;99.90
16781;DHT22;8507;50.056;8.248;2022-12-10T17:01:24;-0.20;99.90
16781;DHT22;8507;50.056;8.248;2022-12-10T17:03:53;-0.30;99.90
16781;DHT22;8507;50.056;8.248;2022-12-10T17:06:19;-0.40;99.90
16781;DHT22;8507;50.056;8.248;2022-12-10T17:08:45;-0.40;99.90
16781;DHT22;8507;50.056;8.248;2022-12-10T17:11:18;-0.40;99.90
16781;DHT22;8507;50.056;8.248;2022-12-10T17:14:04;-0.40;99.90
16781;DHT22;8507;50.056;8.248;2022-12-10T17:16:31;-0.40;99.90
16781;DHT22;8507;50.056;8.248;2022-12-10T17:18:57;-0.50;99.90
16781;DHT22;8507;50.056;8.248;2022-12-10T17:21:23;-0.40;99.90
16781;DHT22;8507;50.056;8.248;2022-12-10T17:23:49;-0.40;99.90
16781;DHT22;8507;50.056;8.248;2022-12-10T17:26:26;-0.50;99.90
16781;DHT22;8507;50.056;8.248;2022-12-10T17:28:53;-0.50;99.90
16781;DHT22;8507;50.056;8.248;2022-12-10T17:31:19;-0.60;99.90
16781;DHT22;8507;50.056;8.248;2022-12-10T17:33:45;-0.50;99.90
16781;DHT22;8507;50.056;8.248;2022-12-10T17:36:10;-0.40;99.90
16781;DHT22;8507;50.056;8.248;2022-12-10T17:38:36;-0.30;99.90
16781;DHT22;8507;50.056;8.248;2022-12-10T17:41:02;-0.30;99.90
16781;DHT22;8507;50.056;8.248;2022-12-10T17:43:27;-0.40;99.90
16781;DHT22;8507;50.056;8.248;2022-12-10T17:45:55;-0.40;99.90
16781;DHT22;8507;50.056;8.248;2022-12-10T17:48:21;-0.40;99.90
16781;DHT22;8507;50.056;8.248;2022-12-10T17:50:47;-0.40;99.90
16781;DHT22;8507;50.056;8.248;2022-12-10T17:53:14;-0.50;99.90
16781;DHT22;8507;50.056;8.248;2022-12-10T17:55:43;-0.50;99.90
16781;DHT22;8507;50.056;8.248;2022-12-10T17:58:12;-0.50;99.90
16781;DHT22;8507;50.056;8.248;2022-12-10T18:00:39;-0.60;99.90
16781;DHT22;8507;50.056;8.248;2022-12-10T18:03:05;-0.60;99.90
16781;DHT22;8507;50.056;8.248;2022-12-10T18:05:30;-0.60;99.90
16781;DHT22;8507;50.056;8.248;2022-12-10T18:07:56;-0.60;99.90